Terminal Aerodrome Forecast
Issued by NWS

Current Version | Previous Version | Text Only | Print | Product List | Glossary On
Versions: 1 2 3 4 5 6 7 8 9 10 11 12 13 14 15 16 17 18 19 20 21 22 23 24 25
000
FTUS41 KBUF 262100 AAB
TAFJHW
TAF AMD
KJHW 262116Z 2621/2718 20010KT P6SM SCT150
     FM270700 20005KT P6SM BKN020 BKN200
     FM271200 19009KT P6SM OVC020
      AMD LTD TO CLD VIS AND WIND=

USA.gov is the U.S. government's official web portal to all federal, state and local government web resources and services.